Time;durP1;ratioP1;P1;durP2;ratioP2;P2;SDS_P1;SDS_P2;PMS_P1;PMS_P2;Temp;Humidity;BMP_temperature;BMP_pressure;BME280_temperature;BME280_humidity;BME280_pressure;Samples;Min_cycle;Max_cycle;Signal;HPM_P1;HPM_P2
2023/08/18 00:01:45;;;;;;;2.90;1.20;;;16.20;96.20;;;;;;5035161;28;20132;-66
2023/08/18 00:04:11;;;;;;;2.08;1.48;;;16.20;96.50;;;;;;5036778;28;20041;-66
2023/08/18 00:06:37;;;;;;;3.72;1.50;;;16.20;96.30;;;;;;5026018;28;20095;-66
2023/08/18 00:09:04;;;;;;;3.50;1.58;;;16.20;96.30;;;;;;5027877;28;20179;-66
2023/08/18 00:11:30;;;;;;;3.33;1.65;;;16.10;96.30;;;;;;5044801;28;20083;-66
2023/08/18 00:13:55;;;;;;;4.07;1.52;;;16.10;96.40;;;;;;5038250;28;20460;-66
2023/08/18 00:16:21;;;;;;;2.30;1.45;;;16.10;96.40;;;;;;5027404;28;20029;-66
2023/08/18 00:18:46;;;;;;;4.20;1.50;;;16.20;96.50;;;;;;5042162;28;20041;-66
2023/08/18 00:21:12;;;;;;;3.92;1.70;;;16.20;96.50;;;;;;5045567;28;20381;-66
2023/08/18 00:23:38;;;;;;;3.78;1.90;;;16.20;96.60;;;;;;5028333;28;20091;-66
2023/08/18 00:26:03;;;;;;;2.88;1.50;;;16.10;96.60;;;;;;5029489;28;20107;-66
2023/08/18 00:28:29;;;;;;;1.92;1.65;;;16.20;96.70;;;;;;5028390;28;20080;-66
2023/08/18 00:30:54;;;;;;;2.95;1.55;;;16.10;96.80;;;;;;5029467;28;20033;-66
2023/08/18 00:33:20;;;;;;;2.25;1.40;;;16.20;96.90;;;;;;5037122;28;20110;-66
2023/08/18 00:35:45;;;;;;;2.40;1.60;;;16.20;97.00;;;;;;5032755;28;20045;-66
2023/08/18 00:38:11;;;;;;;3.70;1.55;;;16.10;97.00;;;;;;5029018;28;20033;-67
2023/08/18 00:40:36;;;;;;;4.72;1.58;;;16.20;97.00;;;;;;5035409;28;20496;-66
2023/08/18 00:43:02;;;;;;;2.92;1.63;;;16.20;97.20;;;;;;5042252;28;20108;-66
2023/08/18 00:45:28;;;;;;;3.83;1.67;;;16.10;97.20;;;;;;5028224;28;20042;-66
2023/08/18 00:47:53;;;;;;;4.35;1.85;;;16.20;97.30;;;;;;5051823;28;20095;-66
2023/08/18 00:50:19;;;;;;;4.80;1.90;;;16.10;97.40;;;;;;5033337;28;20098;-66
2023/08/18 00:52:52;;;;;;;2.22;1.73;;;16.10;97.70;;;;;;5034918;28;20045;-66
2023/08/18 00:55:18;;;;;;;5.30;2.00;;;16.10;97.90;;;;;;5025415;28;20045;-66
2023/08/18 00:57:43;;;;;;;3.92;1.80;;;16.10;97.90;;;;;;5033532;28;20041;-66
2023/08/18 01:00:09;;;;;;;2.88;1.75;;;16.10;98.00;;;;;;5042666;28;20606;-66
2023/08/18 01:02:35;;;;;;;2.88;1.90;;;16.10;98.10;;;;;;5034840;28;20497;-66
2023/08/18 01:05:02;;;;;;;3.88;1.70;;;16.10;98.30;;;;;;5041811;28;20112;-66
2023/08/18 01:07:28;;;;;;;3.50;1.90;;;16.10;98.40;;;;;;5037325;28;20055;-67
2023/08/18 01:09:54;;;;;;;5.03;2.40;;;16.10;98.40;;;;;;5021206;28;20522;-66
2023/08/18 01:12:49;;;;;;;5.00;2.20;;;16.10;98.40;;;;;;5033894;28;20087;-66
2023/08/18 01:15:42;;;;;;;4.32;2.28;;;16.10;98.90;;;;;;5033872;28;20368;-66
2023/08/18 01:18:10;;;;;;;6.13;2.13;;;16.10;98.90;;;;;;5029214;28;20414;-66
2023/08/18 01:20:37;;;;;;;4.40;2.45;;;16.10;98.70;;;;;;5030996;28;20456;-66
2023/08/18 01:23:04;;;;;;;5.35;2.20;;;16.10;98.70;;;;;;5025007;28;20053;-67
2023/08/18 01:25:30;;;;;;;5.15;2.42;;;16.10;98.80;;;;;;5013031;28;20048;-66
2023/08/18 01:27:59;;;;;;;4.00;2.20;;;16.10;98.90;;;;;;5025403;28;20147;-66
2023/08/18 01:30:32;;;;;;;3.72;2.00;;;16.10;99.00;;;;;;5026505;28;20040;-66
2023/08/18 01:33:11;;;;;;;4.47;2.28;;;16.10;99.20;;;;;;5049868;28;20140;-66
2023/08/18 01:35:39;;;;;;;3.20;2.25;;;16.10;99.20;;;;;;5028620;28;20033;-66
2023/08/18 01:38:06;;;;;;;6.03;2.30;;;16.10;99.20;;;;;;5025254;28;20136;-66
2023/08/18 01:40:33;;;;;;;4.30;2.10;;;16.10;99.20;;;;;;5023122;28;20059;-66
2023/08/18 01:42:59;;;;;;;3.08;2.08;;;16.10;99.30;;;;;;5033591;28;20049;-66
2023/08/18 01:45:25;;;;;;;3.13;2.30;;;16.10;99.30;;;;;;5026306;28;20075;-66
2023/08/18 01:47:50;;;;;;;4.35;2.00;;;16.10;99.40;;;;;;5048635;28;20449;-66
2023/08/18 01:50:16;;;;;;;2.83;1.92;;;16.10;99.50;;;;;;5043580;28;20048;-66
2023/08/18 01:52:42;;;;;;;4.20;1.90;;;16.10;99.60;;;;;;5031505;28;20123;-66
2023/08/18 01:55:07;;;;;;;4.35;2.47;;;16.20;99.70;;;;;;5036371;28;20033;-66
2023/08/18 01:57:33;;;;;;;5.05;2.65;;;16.10;99.90;;;;;;5053327;28;20728;-66
2023/08/18 01:59:59;;;;;;;3.55;1.92;;;16.10;99.90;;;;;;5041071;28;20106;-66
2023/08/18 02:02:24;;;;;;;4.53;2.50;;;16.10;99.90;;;;;;5038703;28;20451;-66
2023/08/18 02:04:50;;;;;;;2.70;2.30;;;16.10;99.90;;;;;;5033698;28;20034;-66
2023/08/18 02:07:15;;;;;;;4.38;2.00;;;16.10;99.90;;;;;;5034842;28;20047;-66
2023/08/18 02:09:43;;;;;;;4.43;2.10;;;16.10;99.90;;;;;;5041825;28;20037;-66
2023/08/18 02:12:09;;;;;;;4.70;2.30;;;16.20;99.90;;;;;;5037104;28;20029;-66
2023/08/18 02:14:34;;;;;;;6.15;2.42;;;16.20;99.90;;;;;;5052573;28;20486;-66
2023/08/18 02:17:00;;;;;;;4.18;2.60;;;16.20;99.90;;;;;;5037247;28;20098;-66
2023/08/18 02:19:25;;;;;;;2.90;2.25;;;16.20;99.90;;;;;;5038348;28;20033;-66
2023/08/18 02:21:51;;;;;;;3.50;1.92;;;16.20;99.90;;;;;;5035819;28;21098;-67
2023/08/18 02:24:16;;;;;;;4.60;2.90;;;16.20;99.90;;;;;;5046821;28;20037;-66
2023/08/18 02:26:42;;;;;;;3.85;2.90;;;16.20;99.90;;;;;;5033273;28;20534;-66
2023/08/18 02:29:08;;;;;;;3.85;2.72;;;16.20;99.90;;;;;;5060790;28;20044;-67
2023/08/18 02:31:33;;;;;;;3.45;2.17;;;16.20;99.90;;;;;;5055963;28;20064;-66
2023/08/18 02:33:59;;;;;;;3.88;2.65;;;16.20;99.90;;;;;;5040901;28;20044;-67
2023/08/18 02:36:25;;;;;;;4.68;2.83;;;16.10;99.90;;;;;;5045147;28;20143;-66
2023/08/18 02:38:50;;;;;;;4.88;2.38;;;16.20;99.90;;;;;;5043656;28;20041;-66
2023/08/18 02:41:19;;;;;;;6.00;2.65;;;16.20;99.90;;;;;;5035572;28;20045;-67
2023/08/18 02:43:48;;;;;;;5.15;2.90;;;16.10;99.90;;;;;;5033182;28;20067;-66
2023/08/18 02:46:13;;;;;;;3.50;2.55;;;16.10;99.90;;;;;;5023912;28;20055;-66
2023/08/18 02:48:39;;;;;;;8.13;3.25;;;16.20;99.90;;;;;;5034526;28;20034;-66
2023/08/18 02:51:09;;;;;;;3.55;2.80;;;16.20;99.90;;;;;;5030484;28;20135;-66
2023/08/18 02:53:37;;;;;;;5.70;3.25;;;16.10;99.90;;;;;;5045985;28;20113;-66
2023/08/18 02:56:03;;;;;;;4.90;2.70;;;16.10;99.90;;;;;;5029409;28;20049;-66
2023/08/18 02:58:29;;;;;;;8.02;3.40;;;16.10;99.90;;;;;;5036624;28;20033;-67
2023/08/18 03:01:00;;;;;;;3.47;2.65;;;16.10;99.90;;;;;;5015052;28;20124;-66
2023/08/18 03:03:25;;;;;;;4.47;2.90;;;16.10;99.90;;;;;;5041214;28;20047;-66
2023/08/18 03:05:51;;;;;;;4.25;2.80;;;16.10;99.90;;;;;;5052477;28;20112;-66
2023/08/18 03:08:17;;;;;;;5.55;2.80;;;16.10;99.90;;;;;;5044508;28;20032;-66
2023/08/18 03:10:42;;;;;;;6.93;3.05;;;16.10;99.90;;;;;;5048370;28;20045;-66
2023/08/18 03:13:08;;;;;;;4.88;3.38;;;16.10;99.90;;;;;;5045146;28;20338;-66
2023/08/18 03:15:39;;;;;;;5.03;3.20;;;16.10;99.90;;;;;;5039209;28;20090;-66
2023/08/18 03:18:05;;;;;;;6.63;3.38;;;16.10;99.90;;;;;;5034564;28;20041;-67
2023/08/18 03:20:30;;;;;;;6.55;3.97;;;16.10;99.90;;;;;;5038349;28;20377;-67
2023/08/18 03:22:56;;;;;;;5.20;3.25;;;16.10;99.90;;;;;;5042111;28;20056;-66
2023/08/18 03:25:22;;;;;;;5.25;3.80;;;16.10;99.90;;;;;;5031205;28;20454;-66
2023/08/18 03:27:47;;;;;;;5.40;3.83;;;16.10;99.90;;;;;;5036558;28;20514;-67
2023/08/18 03:30:13;;;;;;;8.25;3.78;;;16.10;99.90;;;;;;5044197;28;20127;-66
2023/08/18 03:32:39;;;;;;;5.93;3.47;;;16.00;99.90;;;;;;5030918;28;20060;-66
2023/08/18 03:35:05;;;;;;;6.50;3.30;;;16.00;99.90;;;;;;5039344;28;20369;-66
2023/08/18 03:37:31;;;;;;;8.52;3.45;;;16.00;99.90;;;;;;5036599;28;20082;-67
2023/08/18 03:39:56;;;;;;;5.32;3.97;;;16.00;99.90;;;;;;5035447;28;20496;-67
2023/08/18 03:42:22;;;;;;;5.07;3.60;;;16.00;99.90;;;;;;5037040;28;20036;-66
2023/08/18 03:44:48;;;;;;;4.78;3.72;;;16.00;99.90;;;;;;5046118;28;20090;-67
2023/08/18 03:47:13;;;;;;;9.60;4.30;;;16.00;99.90;;;;;;5042392;28;20449;-66
2023/08/18 03:49:39;;;;;;;6.60;3.40;;;16.10;99.90;;;;;;5036920;28;20037;-67
2023/08/18 03:52:05;;;;;;;7.47;4.45;;;16.00;99.90;;;;;;5031525;28;20056;-66
2023/08/18 03:54:30;;;;;;;7.60;3.70;;;16.10;99.90;;;;;;5038922;28;20033;-66
2023/08/18 03:56:56;;;;;;;6.68;3.70;;;16.10;99.90;;;;;;5045192;28;20130;-67
2023/08/18 03:59:22;;;;;;;5.05;3.50;;;16.10;99.90;;;;;;5034416;28;20466;-66
2023/08/18 04:01:48;;;;;;;6.35;4.00;;;16.10;99.90;;;;;;5048095;28;20148;-66
2023/08/18 04:04:13;;;;;;;8.98;4.20;;;16.10;99.90;;;;;;5031025;28;20064;-66
2023/08/18 04:06:39;;;;;;;7.35;4.03;;;16.00;99.90;;;;;;5036701;28;20480;-66
2023/08/18 04:09:15;;;;;;;7.93;4.20;;;16.00;99.90;;;;;;5034351;28;20141;-66
2023/08/18 04:11:42;;;;;;;6.00;4.18;;;16.10;99.90;;;;;;5048851;28;20049;-66
2023/08/18 04:14:07;;;;;;;9.30;5.03;;;16.10;99.90;;;;;;5024281;28;20048;-67
2023/08/18 04:16:33;;;;;;;7.00;4.38;;;16.10;99.90;;;;;;5027980;28;20037;-66
2023/08/18 04:19:00;;;;;;;7.80;4.63;;;16.00;99.90;;;;;;5042396;28;20037;-66
2023/08/18 04:21:26;;;;;;;6.85;3.90;;;16.10;99.90;;;;;;5025156;28;20048;-65
2023/08/18 04:23:51;;;;;;;9.18;5.35;;;16.10;99.90;;;;;;5029734;28;20041;-66
2023/08/18 04:26:17;;;;;;;6.13;4.45;;;16.10;99.90;;;;;;5026331;28;20045;-65
2023/08/18 04:28:43;;;;;;;6.47;4.57;;;16.10;99.90;;;;;;5042606;28;20041;-65
2023/08/18 04:31:08;;;;;;;7.22;4.80;;;16.10;99.90;;;;;;5026037;28;20107;-65
2023/08/18 04:33:34;;;;;;;6.63;5.00;;;16.10;99.90;;;;;;5032559;28;20040;-65
2023/08/18 04:35:59;;;;;;;11.55;5.28;;;16.10;99.90;;;;;;5041555;28;20022;-65
2023/08/18 04:38:25;;;;;;;9.85;4.78;;;16.10;99.90;;;;;;5027848;28;20065;-65
2023/08/18 04:40:57;;;;;;;9.88;5.45;;;16.10;99.90;;;;;;5015649;28;20045;-65
2023/08/18 04:43:23;;;;;;;10.48;5.85;;;16.20;99.90;;;;;;5024546;28;20061;-65
2023/08/18 04:45:49;;;;;;;14.02;5.80;;;16.20;99.90;;;;;;5026867;28;20064;-65
2023/08/18 04:48:14;;;;;;;11.75;5.30;;;16.10;99.90;;;;;;5036219;28;20432;-66
2023/08/18 04:50:40;;;;;;;7.03;4.65;;;16.10;99.90;;;;;;5045594;28;20077;-65
2023/08/18 04:53:05;;;;;;;8.55;5.00;;;16.10;99.90;;;;;;5028622;28;20067;-66
2023/08/18 04:55:33;;;;;;;8.32;4.78;;;16.10;99.90;;;;;;5057011;28;20131;-65
2023/08/18 04:57:59;;;;;;;11.40;5.72;;;16.20;99.90;;;;;;5066990;28;20144;-64
2023/08/18 05:00:25;;;;;;;9.90;5.95;;;16.20;99.90;;;;;;5070705;28;20119;-65
2023/08/18 05:02:51;;;;;;;10.25;5.65;;;16.20;99.90;;;;;;5045921;28;20137;-65
2023/08/18 05:05:18;;;;;;;10.68;6.25;;;16.20;99.90;;;;;;5035592;28;20041;-65
2023/08/18 05:07:43;;;;;;;12.93;6.38;;;16.20;99.90;;;;;;5042660;28;20130;-65
2023/08/18 05:10:09;;;;;;;9.23;5.53;;;16.20;99.90;;;;;;5045328;28;20069;-64
2023/08/18 05:12:34;;;;;;;11.65;6.05;;;16.20;99.90;;;;;;5036986;28;20041;-65
2023/08/18 05:15:00;;;;;;;10.20;6.85;;;16.20;99.90;;;;;;5026775;28;20033;-65
2023/08/18 05:17:26;;;;;;;10.75;5.93;;;16.20;99.90;;;;;;5045518;28;20065;-65
2023/08/18 05:19:51;;;;;;;14.18;6.60;;;16.20;99.90;;;;;;5039387;28;20124;-65
2023/08/18 05:22:17;;;;;;;10.48;5.85;;;16.20;99.90;;;;;;5045884;28;20124;-65
2023/08/18 05:24:43;;;;;;;11.93;6.82;;;16.30;99.90;;;;;;5042295;28;20049;-65
2023/08/18 05:27:08;;;;;;;12.60;7.57;;;16.30;99.90;;;;;;5025689;28;20521;-65
2023/08/18 05:29:34;;;;;;;10.00;5.90;;;16.30;99.90;;;;;;5035245;28;20573;-65
2023/08/18 05:31:59;;;;;;;11.05;6.93;;;16.30;99.90;;;;;;5026624;28;20504;-65
2023/08/18 05:34:25;;;;;;;11.10;6.47;;;16.20;99.90;;;;;;5036537;28;20045;-65
2023/08/18 05:36:51;;;;;;;12.70;7.10;;;16.30;99.90;;;;;;5048534;28;20143;-65
2023/08/18 05:39:17;;;;;;;13.40;7.03;;;16.20;99.90;;;;;;5031157;28;20064;-65
2023/08/18 05:41:44;;;;;;;13.45;5.85;;;16.20;99.90;;;;;;5034388;28;20519;-65
2023/08/18 05:44:09;;;;;;;14.25;7.20;;;16.20;99.90;;;;;;5040824;28;20064;-65
2023/08/18 05:46:35;;;;;;;12.65;6.45;;;16.20;99.90;;;;;;5027701;28;20454;-65
2023/08/18 05:49:00;;;;;;;13.75;7.55;;;16.20;99.90;;;;;;5028262;28;20414;-65
2023/08/18 05:51:26;;;;;;;10.77;6.55;;;16.20;99.90;;;;;;5036656;28;20345;-65
2023/08/18 05:53:51;;;;;;;12.48;7.55;;;16.20;99.90;;;;;;5059485;28;20049;-65
2023/08/18 05:56:17;;;;;;;12.10;7.15;;;16.30;99.90;;;;;;5029779;28;20622;-65
2023/08/18 05:58:43;;;;;;;12.45;6.82;;;16.30;99.90;;;;;;5028349;28;20037;-65
2023/08/18 06:01:09;;;;;;;8.88;6.68;;;16.30;99.90;;;;;;5037262;28;20044;-65
2023/08/18 06:03:34;;;;;;;11.27;6.45;;;16.40;99.90;;;;;;5033712;28;20084;-64
2023/08/18 06:06:00;;;;;;;11.75;6.68;;;16.40;99.90;;;;;;5035612;28;20462;-65
2023/08/18 06:08:26;;;;;;;17.35;7.55;;;16.50;99.90;;;;;;5032693;28;20037;-66
2023/08/18 06:10:52;;;;;;;9.25;6.65;;;16.50;99.90;;;;;;5036567;28;20137;-65
2023/08/18 06:13:18;;;;;;;11.80;6.75;;;16.50;99.90;;;;;;5029294;28;20033;-64
2023/08/18 06:15:43;;;;;;;11.55;6.63;;;16.50;99.90;;;;;;5040596;28;20087;-65
2023/08/18 06:18:09;;;;;;;10.25;6.28;;;16.60;99.90;;;;;;5042585;28;20318;-65
2023/08/18 06:20:35;;;;;;;11.82;6.22;;;16.60;99.90;;;;;;5034537;28;20167;-65
2023/08/18 06:23:00;;;;;;;11.75;6.43;;;16.60;99.90;;;;;;5033868;28;20465;-66
2023/08/18 06:25:26;;;;;;;10.18;6.40;;;16.60;99.90;;;;;;5042532;28;20056;-65
2023/08/18 06:27:52;;;;;;;14.73;6.95;;;16.70;99.90;;;;;;5029112;28;20102;-65
2023/08/18 06:30:17;;;;;;;10.75;6.28;;;16.70;99.90;;;;;;5028052;28;20053;-66
2023/08/18 06:32:44;;;;;;;10.13;6.47;;;16.80;99.90;;;;;;5042130;28;20087;-66
2023/08/18 06:35:10;;;;;;;13.55;6.75;;;16.80;99.90;;;;;;5050097;28;20060;-65
2023/08/18 06:37:35;;;;;;;12.50;6.72;;;16.80;99.90;;;;;;5034547;28;20029;-66
2023/08/18 06:40:01;;;;;;;14.10;5.93;;;16.80;99.90;;;;;;5029413;28;20068;-65
2023/08/18 06:42:27;;;;;;;10.63;6.82;;;16.80;99.90;;;;;;5029247;28;20102;-65
2023/08/18 06:44:53;;;;;;;16.92;7.07;;;16.80;99.90;;;;;;5034650;28;20042;-65
2023/08/18 06:47:18;;;;;;;12.38;6.18;;;16.90;99.90;;;;;;5055127;28;20064;-65
2023/08/18 06:49:44;;;;;;;13.55;6.18;;;16.90;99.90;;;;;;5047138;28;20445;-65
2023/08/18 06:52:09;;;;;;;13.85;6.32;;;16.90;99.90;;;;;;5041445;28;20056;-65
2023/08/18 06:54:35;;;;;;;10.07;5.50;;;16.90;99.90;;;;;;5046454;28;20132;-65
2023/08/18 06:57:01;;;;;;;13.93;6.63;;;17.00;99.90;;;;;;5048773;28;20135;-65
2023/08/18 06:59:26;;;;;;;13.38;6.93;;;17.00;99.90;;;;;;5052067;28;20037;-65
2023/08/18 07:01:53;;;;;;;14.88;6.55;;;17.00;99.90;;;;;;5040650;28;20068;-65
2023/08/18 07:04:19;;;;;;;21.27;7.65;;;17.00;99.90;;;;;;5049994;28;20507;-66
2023/08/18 07:06:45;;;;;;;16.63;6.05;;;17.00;99.90;;;;;;5021972;28;20092;-65
2023/08/18 07:09:11;;;;;;;15.00;6.43;;;17.00;99.90;;;;;;5048902;28;20056;-65
2023/08/18 07:11:37;;;;;;;18.90;7.45;;;17.00;99.90;;;;;;5043404;28;20576;-65
2023/08/18 07:14:03;;;;;;;19.85;7.32;;;17.00;99.90;;;;;;5041651;28;20120;-65
2023/08/18 07:16:29;;;;;;;19.60;6.88;;;17.00;99.90;;;;;;5045963;28;20049;-65
2023/08/18 07:18:55;;;;;;;20.60;7.57;;;17.00;99.90;;;;;;5033623;28;20064;-65
2023/08/18 07:21:21;;;;;;;22.23;7.32;;;17.00;99.90;;;;;;5029825;28;20049;-65
2023/08/18 07:23:46;;;;;;;15.38;6.22;;;17.10;99.90;;;;;;5034958;28;20045;-65
2023/08/18 07:26:12;;;;;;;23.35;7.35;;;17.20;99.90;;;;;;5044419;28;20045;-65
2023/08/18 07:28:37;;;;;;;18.40;7.15;;;17.10;99.90;;;;;;5046231;28;20034;-65
2023/08/18 07:31:04;;;;;;;22.55;7.53;;;17.20;99.90;;;;;;5043763;28;20550;-66
2023/08/18 07:33:30;;;;;;;16.95;6.30;;;17.20;99.90;;;;;;5035148;28;20049;-65
2023/08/18 07:35:56;;;;;;;21.27;6.97;;;17.30;99.90;;;;;;5040658;28;20128;-64
2023/08/18 07:38:22;;;;;;;13.07;6.43;;;17.20;99.90;;;;;;5014138;28;20048;-65
2023/08/18 07:40:47;;;;;;;14.80;6.78;;;17.20;99.90;;;;;;5011338;28;22656;-65
2023/08/18 07:43:14;;;;;;;13.38;6.93;;;17.30;99.90;;;;;;5026461;28;20047;-65
2023/08/18 07:45:39;;;;;;;16.58;6.65;;;17.30;99.90;;;;;;5033754;28;20093;-65
2023/08/18 07:48:05;;;;;;;13.95;6.70;;;17.50;99.90;;;;;;5040014;28;20280;-68
2023/08/18 07:50:31;;;;;;;16.42;7.20;;;17.50;99.90;;;;;;5032107;28;20393;-66
2023/08/18 07:52:57;;;;;;;15.40;7.28;;;17.60;99.90;;;;;;5047271;28;20481;-65
2023/08/18 07:55:22;;;;;;;16.13;6.18;;;17.60;99.90;;;;;;5036092;28;20037;-65
2023/08/18 07:57:48;;;;;;;12.45;6.50;;;17.70;99.90;;;;;;5049200;28;20628;-65
2023/08/18 08:00:18;;;;;;;11.68;5.57;;;17.80;99.90;;;;;;5033098;28;20310;-65
2023/08/18 08:02:48;;;;;;;14.02;6.00;;;17.90;99.90;;;;;;5032062;28;20125;-65
2023/08/18 08:05:17;;;;;;;14.10;6.28;;;17.90;99.90;;;;;;5031254;28;20456;-65
2023/08/18 08:07:43;;;;;;;10.18;6.15;;;17.90;99.90;;;;;;5026912;28;20038;-65
2023/08/18 08:10:09;;;;;;;12.40;6.05;;;17.90;99.90;;;;;;5029385;28;20056;-66
2023/08/18 08:12:38;;;;;;;13.90;6.03;;;18.00;99.90;;;;;;5039160;28;20606;-65
2023/08/18 08:15:04;;;;;;;12.35;6.80;;;18.10;99.90;;;;;;5037497;28;20041;-66
2023/08/18 08:17:30;;;;;;;12.80;5.85;;;18.00;99.90;;;;;;5032847;28;20045;-65
2023/08/18 08:19:56;;;;;;;13.38;6.18;;;18.10;99.90;;;;;;5028773;28;20037;-65
2023/08/18 08:22:23;;;;;;;14.38;6.40;;;18.20;99.90;;;;;;5044509;28;20037;-66
2023/08/18 08:24:50;;;;;;;14.40;6.45;;;18.10;99.90;;;;;;5044622;28;20123;-65
2023/08/18 08:27:17;;;;;;;11.80;6.82;;;18.20;99.90;;;;;;5038959;28;20037;-65
2023/08/18 08:29:43;;;;;;;14.50;6.93;;;18.20;99.90;;;;;;5041278;28;20040;-65
2023/08/18 08:32:09;;;;;;;15.02;6.50;;;18.20;99.90;;;;;;5030628;28;20060;-66
2023/08/18 08:34:38;;;;;;;13.63;6.78;;;18.30;99.90;;;;;;5045401;28;20092;-65
2023/08/18 08:37:03;;;;;;;11.90;6.38;;;18.30;99.90;;;;;;5028632;28;20048;-65
2023/08/18 08:39:29;;;;;;;15.95;7.03;;;18.40;99.90;;;;;;5037352;28;20101;-65
2023/08/18 08:41:54;;;;;;;11.90;7.20;;;18.60;99.90;;;;;;5028955;28;20492;-66
2023/08/18 08:44:20;;;;;;;17.27;6.68;;;18.70;99.90;;;;;;5009903;28;20442;-66
2023/08/18 08:46:46;;;;;;;13.88;6.18;;;18.80;99.90;;;;;;5043218;28;20116;-65
2023/08/18 08:49:12;;;;;;;13.63;7.10;;;19.00;99.90;;;;;;5027956;28;20128;-65
2023/08/18 08:51:41;;;;;;;13.27;6.82;;;19.20;99.90;;;;;;5047166;28;20049;-65
2023/08/18 08:54:10;;;;;;;13.02;6.85;;;19.20;99.90;;;;;;5040194;28;20087;-65
2023/08/18 08:56:37;;;;;;;15.93;6.95;;;19.30;99.90;;;;;;5039016;28;20100;-65
2023/08/18 08:59:03;;;;;;;13.45;7.00;;;19.40;99.90;;;;;;5049475;28;20029;-65
2023/08/18 09:01:28;;;;;;;14.52;7.28;;;19.60;99.90;;;;;;5041276;28;20500;-65
2023/08/18 09:03:55;;;;;;;16.27;7.57;;;19.50;99.90;;;;;;5036941;28;20056;-65
2023/08/18 09:06:21;;;;;;;12.35;7.40;;;19.50;99.90;;;;;;5047051;28;20043;-65
2023/08/18 09:08:47;;;;;;;15.15;7.63;;;19.40;99.90;;;;;;5035968;28;20448;-65
2023/08/18 09:11:12;;;;;;;12.07;7.50;;;19.40;99.90;;;;;;5030681;28;20045;-65
2023/08/18 09:13:39;;;;;;;14.60;6.90;;;19.40;99.90;;;;;;5036344;28;20044;-66
2023/08/18 09:16:06;;;;;;;12.90;6.82;;;19.60;99.90;;;;;;5048600;28;20049;-66
2023/08/18 09:18:33;;;;;;;9.85;6.38;;;19.60;99.90;;;;;;5027883;28;20099;-66
2023/08/18 09:21:06;;;;;;;12.32;6.75;;;19.70;99.90;;;;;;5040631;28;20061;-65
2023/08/18 09:23:31;;;;;;;14.95;6.72;;;19.80;99.90;;;;;;5043372;28;20048;-65
2023/08/18 09:25:58;;;;;;;16.27;7.40;;;19.70;99.90;;;;;;5014545;28;20049;-65
2023/08/18 09:28:25;;;;;;;11.73;6.85;;;19.80;99.90;;;;;;5028646;28;20329;-65
2023/08/18 09:30:51;;;;;;;11.27;6.57;;;19.70;99.90;;;;;;5040025;28;20085;-67
2023/08/18 09:33:17;;;;;;;12.50;6.38;;;19.80;99.90;;;;;;5043676;28;20041;-66
2023/08/18 09:35:42;;;;;;;9.88;6.18;;;19.80;99.90;;;;;;5026731;28;20370;-65
2023/08/18 09:38:13;;;;;;;11.30;6.68;;;19.90;99.90;;;;;;5036048;28;20040;-66
2023/08/18 09:40:39;;;;;;;10.77;6.90;;;20.00;99.90;;;;;;5055239;28;20048;-65
2023/08/18 09:43:04;;;;;;;8.88;6.22;;;20.00;99.80;;;;;;5051847;28;20041;-65
2023/08/18 09:45:32;;;;;;;9.90;6.47;;;20.00;99.70;;;;;;5030869;28;20037;-64
2023/08/18 09:48:01;;;;;;;11.93;6.68;;;20.10;99.30;;;;;;5027672;28;20125;-66
2023/08/18 09:50:30;;;;;;;8.80;6.18;;;20.30;99.20;;;;;;5026329;28;20056;-65
2023/08/18 09:52:57;;;;;;;12.15;6.55;;;20.40;98.80;;;;;;5026784;28;20077;-65
2023/08/18 09:55:36;;;;;;;9.75;6.93;;;20.60;98.50;;;;;;5050399;28;20040;-65
2023/08/18 09:58:15;;;;;;;11.65;7.70;;;20.70;97.20;;;;;;5047920;28;20039;-66
2023/08/18 10:00:43;;;;;;;12.07;6.63;;;20.70;97.20;;;;;;5057142;28;20048;-65
2023/08/18 10:03:16;;;;;;;14.20;7.22;;;20.70;97.40;;;;;;5046540;28;20202;-65
2023/08/18 10:05:42;;;;;;;9.45;6.13;;;20.80;97.00;;;;;;5040625;28;20147;-65
2023/08/18 10:08:08;;;;;;;10.38;6.10;;;20.90;97.20;;;;;;5053579;28;20073;-66
2023/08/18 10:10:34;;;;;;;10.88;7.13;;;20.90;97.10;;;;;;5030993;28;20068;-66
2023/08/18 10:13:00;;;;;;;13.23;7.15;;;20.80;97.20;;;;;;5051308;28;20052;-66
2023/08/18 10:15:26;;;;;;;13.13;7.80;;;20.90;97.10;;;;;;5034401;28;20033;-65
2023/08/18 10:17:52;;;;;;;11.93;7.13;;;20.80;97.10;;;;;;5020502;28;20060;-66
2023/08/18 10:20:18;;;;;;;10.55;7.50;;;20.70;97.20;;;;;;5037395;28;21117;-67
2023/08/18 10:22:43;;;;;;;9.02;6.93;;;20.80;97.20;;;;;;5040753;28;21312;-65
2023/08/18 10:25:09;;;;;;;11.60;6.85;;;20.80;97.30;;;;;;5044702;28;20398;-65
2023/08/18 10:27:38;;;;;;;10.85;7.47;;;20.90;97.40;;;;;;5041837;28;20053;-66
2023/08/18 10:30:07;;;;;;;9.48;6.72;;;21.10;97.00;;;;;;5031159;28;20041;-65
2023/08/18 10:32:33;;;;;;;11.20;6.93;;;21.20;96.90;;;;;;5042476;28;20448;-65
2023/08/18 10:35:22;;;;;;;9.00;6.45;;;21.40;96.70;;;;;;5042096;28;20040;-65
2023/08/18 10:38:11;;;;;;;12.02;7.88;;;21.50;96.20;;;;;;5030446;28;20073;-65
2023/08/18 10:40:38;;;;;;;12.38;6.85;;;21.70;95.80;;;;;;5052238;28;20082;-66
2023/08/18 10:43:10;;;;;;;8.68;6.38;;;21.70;95.60;;;;;;5068990;28;20167;-65
2023/08/18 10:45:37;;;;;;;13.10;7.05;;;21.80;95.20;;;;;;5033617;28;20120;-65
2023/08/18 10:48:05;;;;;;;11.60;7.32;;;21.90;95.00;;;;;;5044372;28;20049;-66
2023/08/18 10:50:33;;;;;;;10.88;6.72;;;21.90;94.90;;;;;;5051122;28;20037;-65
2023/08/18 10:53:01;;;;;;;11.13;7.55;;;22.10;94.70;;;;;;5035956;28;20041;-66
2023/08/18 10:55:27;;;;;;;13.95;7.28;;;22.30;94.30;;;;;;5067048;28;20041;-65
2023/08/18 10:57:53;;;;;;;9.85;7.40;;;22.50;93.80;;;;;;5047384;28;20033;-66
2023/08/18 11:00:19;;;;;;;13.35;8.23;;;22.70;93.20;;;;;;5054096;28;20107;-66
2023/08/18 11:02:47;;;;;;;11.73;8.25;;;22.80;92.80;;;;;;5040949;28;20371;-66
2023/08/18 11:05:13;;;;;;;10.25;7.10;;;22.80;92.60;;;;;;5027602;28;20133;-65
2023/08/18 11:07:39;;;;;;;10.55;7.50;;;22.80;92.30;;;;;;5037860;28;20056;-65
2023/08/18 11:10:15;;;;;;;11.15;7.30;;;22.70;92.20;;;;;;5056389;28;20102;-66
2023/08/18 11:12:42;;;;;;;9.68;7.65;;;22.60;91.90;;;;;;5047226;28;20053;-66
2023/08/18 11:15:07;;;;;;;11.18;8.63;;;22.40;92.60;;;;;;5048115;28;20037;-66
2023/08/18 11:17:33;;;;;;;11.88;9.00;;;22.40;92.80;;;;;;5057129;28;20413;-65
2023/08/18 11:19:59;;;;;;;12.07;7.95;;;22.40;93.00;;;;;;5034136;28;20375;-67
2023/08/18 11:22:25;;;;;;;12.63;8.57;;;22.30;93.40;;;;;;5037384;28;20072;-65
2023/08/18 11:24:51;;;;;;;12.15;7.78;;;22.30;93.20;;;;;;5045081;28;20044;-65
2023/08/18 11:27:16;;;;;;;10.13;8.35;;;22.30;93.30;;;;;;5053805;28;20036;-66
2023/08/18 11:29:43;;;;;;;13.75;8.90;;;22.30;93.40;;;;;;5045597;28;20598;-65
2023/08/18 11:32:11;;;;;;;12.02;9.20;;;22.30;93.40;;;;;;5041421;28;20130;-66
2023/08/18 11:34:38;;;;;;;13.30;9.70;;;22.30;93.30;;;;;;5045629;28;20151;-65
2023/08/18 11:37:05;;;;;;;12.85;8.93;;;22.40;93.50;;;;;;5034537;28;20380;-66
2023/08/18 11:39:31;;;;;;;11.85;9.20;;;22.50;93.40;;;;;;5030971;28;20158;-65
2023/08/18 11:41:56;;;;;;;13.57;9.55;;;22.60;93.20;;;;;;5023936;28;20060;-65
2023/08/18 11:44:23;;;;;;;14.45;9.73;;;22.90;93.00;;;;;;5025712;28;20559;-65
2023/08/18 11:46:49;;;;;;;14.63;9.85;;;23.00;92.80;;;;;;5027454;28;20183;-66
2023/08/18 11:49:17;;;;;;;14.88;9.85;;;23.00;92.50;;;;;;5045686;28;20534;-66
2023/08/18 11:52:04;;;;;;;16.25;10.85;;;23.00;92.40;;;;;;5049819;28;20052;-65
2023/08/18 11:54:33;;;;;;;12.98;10.25;;;22.90;92.10;;;;;;5045680;28;20048;-71
2023/08/18 11:56:59;;;;;;;10.77;8.55;;;22.80;92.60;;;;;;5053228;28;20068;-66
2023/08/18 11:59:25;;;;;;;15.32;10.07;;;22.90;92.80;;;;;;5029345;28;20056;-65
2023/08/18 12:02:04;;;;;;;16.70;10.15;;;22.80;92.90;;;;;;5027414;28;20041;-65
2023/08/18 12:04:31;;;;;;;15.15;9.57;;;22.80;92.80;;;;;;5047450;28;20043;-66
2023/08/18 12:06:57;;;;;;;15.05;10.27;;;22.80;93.00;;;;;;5049429;28;20416;-66
2023/08/18 12:09:23;;;;;;;15.52;10.25;;;22.90;92.80;;;;;;5029098;28;20045;-65
2023/08/18 12:11:50;;;;;;;14.13;10.85;;;22.90;92.70;;;;;;5029641;28;20080;-65
2023/08/18 12:14:16;;;;;;;12.75;8.20;;;23.20;93.00;;;;;;5028213;28;20037;-66
2023/08/18 12:16:43;;;;;;;13.73;9.32;;;23.30;92.40;;;;;;5029599;28;20112;-65
2023/08/18 12:19:08;;;;;;;17.15;12.60;;;23.60;92.10;;;;;;5029252;28;20038;-67
2023/08/18 12:21:36;;;;;;;14.00;9.90;;;23.80;91.50;;;;;;5036758;28;20082;-65
2023/08/18 12:24:05;;;;;;;14.98;9.73;;;24.20;91.00;;;;;;5038406;28;20044;-66
2023/08/18 12:26:32;;;;;;;16.30;12.53;;;24.70;90.30;;;;;;5042372;28;20068;-65
2023/08/18 12:28:57;;;;;;;15.15;10.60;;;24.70;88.60;;;;;;5046012;28;20295;-65
2023/08/18 12:31:24;;;;;;;12.13;8.95;;;24.80;87.80;;;;;;5060483;28;20718;-65
2023/08/18 12:33:51;;;;;;;11.02;8.90;;;25.00;87.00;;;;;;5041806;28;20037;-65
2023/08/18 12:36:16;;;;;;;11.23;8.25;;;25.00;86.60;;;;;;5032354;28;20045;-65
2023/08/18 12:38:42;;;;;;;12.40;9.35;;;25.40;85.50;;;;;;5046098;28;20585;-66